createdAt,value
2022-09-04T00:02:45.015Z,10.35
2022-09-04T00:05:53.239Z,8.98
2022-09-04T00:08:55.682Z,10.02
2022-09-04T00:11:22.562Z,9.70
2022-09-04T00:14:07.095Z,10.27
2022-09-04T00:16:51.220Z,10.55
2022-09-04T00:19:36.210Z,10.43
2022-09-04T00:22:21.716Z,11.65
2022-09-04T00:25:01.374Z,11.15
2022-09-04T00:27:36.106Z,12.20
2022-09-04T00:30:11.507Z,11.93
2022-09-04T00:32:54.928Z,10.77
2022-09-04T00:35:32.454Z,11.15
2022-09-04T00:38:13.490Z,10.70
2022-09-04T00:40:50.047Z,11.52
2022-09-04T00:43:49.491Z,11.10
2022-09-04T00:46:41.415Z,10.20
2022-09-04T00:49:20.294Z,10.45
2022-09-04T00:52:05.591Z,10.93
2022-09-04T00:54:47.783Z,10.60
2022-09-04T00:57:45.464Z,10.80
2022-09-04T01:00:19.630Z,10.40
2022-09-04T01:03:07.470Z,11.27
2022-09-04T01:06:04.013Z,10.82
2022-09-04T01:08:40.831Z,10.80
2022-09-04T01:11:27.537Z,11.38
2022-09-04T01:14:13.420Z,11.35
2022-09-04T01:16:48.485Z,11.82
2022-09-04T01:19:56.147Z,11.80
2022-09-04T01:22:41.447Z,10.88
2022-09-04T01:25:30.794Z,11.30
2022-09-04T01:28:22.331Z,10.93
2022-09-04T01:31:26.619Z,12.18
2022-09-04T01:34:17.954Z,11.40
2022-09-04T01:37:05.868Z,11.93
2022-09-04T01:39:35.856Z,12.35
2022-09-04T01:42:12.959Z,13.25
2022-09-04T01:44:39.855Z,12.25
2022-09-04T01:47:28.832Z,12.27
2022-09-04T01:50:02.043Z,11.40
2022-09-04T01:53:07.164Z,12.73
2022-09-04T01:56:04.396Z,13.70
2022-09-04T01:58:40.817Z,12.48
2022-09-04T02:01:19.133Z,12.82
2022-09-04T02:04:08.181Z,13.00
2022-09-04T02:06:44.144Z,11.95
2022-09-04T02:09:16.592Z,12.20
2022-09-04T02:11:56.827Z,13.02
2022-09-04T02:14:27.507Z,14.38
2022-09-04T02:17:10.681Z,12.88
2022-09-04T02:20:01.497Z,12.20
2022-09-04T02:22:31.132Z,12.48
2022-09-04T02:25:11.395Z,12.02
2022-09-04T02:28:03.845Z,12.88
2022-09-04T02:30:41.157Z,12.80
2022-09-04T02:33:18.869Z,13.45
2022-09-04T02:36:44.580Z,13.27
2022-09-04T02:39:42.181Z,11.63
2022-09-04T02:42:18.150Z,12.50
2022-09-04T02:44:53.628Z,12.27
2022-09-04T02:47:38.656Z,12.10
2022-09-04T02:50:11.479Z,12.25
2022-09-04T02:55:48.511Z,10.95
2022-09-04T02:58:27.274Z,11.35
2022-09-04T03:01:03.065Z,12.18
2022-09-04T03:03:40.802Z,12.50
2022-09-04T03:06:13.554Z,10.52
2022-09-04T03:11:17.959Z,10.88
2022-09-04T03:13:59.391Z,11.95
2022-09-04T03:16:45.021Z,12.10
2022-09-04T03:19:40.367Z,11.52
2022-09-04T03:22:26.444Z,12.30
2022-09-04T03:25:24.019Z,12.40
2022-09-04T03:27:50.856Z,12.63
2022-09-04T03:30:18.564Z,12.38
2022-09-04T03:32:57.171Z,11.05
2022-09-04T03:35:42.120Z,12.65
2022-09-04T03:38:16.602Z,13.63
2022-09-04T03:41:13.161Z,15.30
2022-09-04T03:43:44.525Z,17.90
2022-09-04T03:46:17.316Z,19.58
2022-09-04T03:51:32.464Z,18.83
2022-09-04T03:54:26.027Z,19.05
2022-09-04T03:57:05.035Z,14.25
2022-09-04T03:59:56.594Z,12.73
2022-09-04T04:02:34.172Z,14.38
2022-09-04T04:05:36.956Z,12.60
2022-09-04T04:08:22.597Z,10.55
2022-09-04T04:11:35.260Z,9.63
2022-09-04T04:14:38.329Z,9.10
2022-09-04T04:17:12.751Z,9.73
2022-09-04T04:20:13.253Z,8.50
2022-09-04T04:22:39.971Z,9.43
2022-09-04T04:25:34.399Z,10.02
2022-09-04T04:28:17.151Z,10.40
2022-09-04T04:30:54.643Z,10.45
2022-09-04T04:33:24.441Z,10.40
2022-09-04T04:35:57.415Z,10.15
2022-09-04T04:38:34.534Z,10.05
2022-09-04T04:41:30.825Z,10.05
2022-09-04T04:44:03.700Z,10.13
2022-09-04T04:46:56.194Z,10.23
2022-09-04T04:49:48.608Z,10.35
2022-09-04T04:52:29.846Z,11.02
2022-09-04T04:55:18.003Z,9.60
2022-09-04T04:57:49.414Z,10.38
2022-09-04T05:00:40.234Z,10.65
2022-09-04T05:03:21.644Z,9.63
2022-09-04T05:06:01.057Z,9.68
2022-09-04T05:08:39.800Z,8.82
2022-09-04T05:11:16.482Z,8.30
2022-09-04T05:13:59.404Z,8.20
2022-09-04T05:16:35.283Z,7.15
2022-09-04T05:59:28.283Z,4.82
2022-09-04T06:02:26.861Z,4.75
2022-09-04T06:05:19.148Z,4.03
2022-09-04T06:08:07.055Z,3.40
2022-09-04T06:11:18.508Z,3.75
2022-09-04T06:13:59.465Z,3.83
2022-09-04T06:17:01.702Z,3.60
2022-09-04T06:19:53.272Z,3.03
2022-09-04T06:22:39.763Z,3.53
2022-09-04T06:25:13.780Z,3.63
2022-09-04T06:27:52.343Z,2.85
2022-09-04T06:30:19.482Z,2.63
2022-09-04T06:33:17.353Z,2.40
2022-09-04T06:36:12.334Z,2.58
2022-09-04T06:38:57.414Z,3.47
2022-09-04T06:41:39.202Z,3.28
2022-09-04T06:44:24.544Z,4.22
2022-09-04T06:47:12.848Z,5.03
2022-09-04T06:50:11.681Z,5.57
2022-09-04T06:52:57.671Z,4.20
2022-09-04T06:55:50.985Z,3.15
2022-09-04T06:58:46.187Z,2.80
2022-09-04T07:01:50.506Z,2.53
2022-09-04T07:04:35.731Z,2.30
2022-09-04T07:07:26.870Z,2.25
2022-09-04T07:10:01.495Z,2.60
2022-09-04T07:12:42.830Z,2.10
2022-09-04T07:15:31.564Z,2.00
2022-09-04T07:18:09.631Z,2.53
2022-09-04T07:20:49.249Z,2.00
2022-09-04T07:23:27.632Z,1.60
2022-09-04T07:26:05.275Z,1.90
2022-09-04T07:28:52.069Z,1.95
2022-09-04T07:31:22.337Z,2.00
2022-09-04T07:34:07.830Z,2.03
2022-09-04T07:37:00.163Z,1.80
2022-09-04T07:39:50.797Z,2.92
2022-09-04T07:42:26.580Z,3.03
2022-09-04T07:45:06.026Z,3.05
2022-09-04T07:47:57.587Z,3.70
2022-09-04T07:51:16.833Z,4.43
2022-09-04T07:53:49.545Z,4.22
2022-09-04T07:56:28.636Z,4.40
2022-09-04T07:59:21.661Z,2.30
2022-09-04T08:02:06.681Z,3.47
2022-09-04T08:04:51.739Z,2.70
2022-09-04T08:07:42.009Z,2.80
2022-09-04T08:10:33.866Z,2.47
2022-09-04T08:13:14.139Z,2.33
2022-09-04T08:15:51.471Z,1.58
2022-09-04T08:18:33.671Z,1.80
2022-09-04T08:21:12.094Z,2.05
2022-09-04T08:23:59.407Z,1.75
2022-09-04T08:26:51.871Z,1.45
2022-09-04T08:29:52.719Z,1.83
2022-09-04T08:32:28.555Z,1.70
2022-09-04T08:35:23.284Z,1.52
2022-09-04T08:38:08.587Z,2.20
2022-09-04T08:40:44.383Z,2.55
2022-09-04T08:43:48.597Z,2.85
2022-09-04T08:47:12.829Z,1.77
2022-09-04T08:50:04.295Z,1.40
2022-09-04T08:53:12.369Z,1.20
2022-09-04T08:56:22.662Z,1.52
2022-09-04T08:59:27.299Z,1.40
2022-09-04T09:02:09.074Z,1.17
2022-09-04T09:05:00.812Z,1.17
2022-09-04T09:07:33.767Z,1.13
2022-09-04T09:10:34.626Z,0.93
2022-09-04T09:13:46.127Z,1.50
2022-09-04T09:16:36.494Z,1.10
2022-09-04T09:19:25.929Z,0.80
2022-09-04T09:22:33.860Z,1.00
2022-09-04T09:25:11.974Z,0.98
2022-09-04T09:27:38.824Z,1.17
2022-09-04T09:30:16.668Z,1.20
2022-09-04T09:33:08.428Z,1.10
2022-09-04T09:35:55.891Z,0.93
2022-09-04T09:38:36.024Z,0.90
2022-09-04T09:41:37.638Z,1.17
2022-09-04T09:44:49.496Z,0.70
2022-09-04T09:47:40.853Z,1.02
2022-09-04T09:50:16.788Z,1.00
2022-09-04T09:52:52.770Z,0.98
2022-09-04T09:55:31.847Z,0.70
2022-09-04T09:58:13.788Z,0.88
2022-09-04T10:01:09.449Z,0.60
2022-09-04T10:03:39.207Z,0.80
2022-09-04T10:06:21.882Z,0.98
2022-09-04T10:08:51.405Z,1.00
2022-09-04T10:11:30.073Z,0.85
2022-09-04T10:14:02.508Z,0.70
2022-09-04T10:17:03.550Z,0.90
2022-09-04T10:20:08.740Z,1.00
2022-09-04T10:22:57.317Z,0.80
2022-09-04T10:25:31.158Z,1.00
2022-09-04T10:28:19.750Z,0.80
2022-09-04T10:31:05.171Z,0.70
2022-09-04T10:34:29.746Z,0.60
2022-09-04T10:37:15.186Z,1.08
2022-09-04T10:40:22.376Z,1.25
2022-09-04T10:43:26.627Z,0.77
2022-09-04T10:45:56.184Z,0.70
2022-09-04T10:48:54.269Z,0.75
2022-09-04T10:51:39.541Z,1.20
2022-09-04T10:54:30.737Z,1.10
2022-09-04T10:57:18.536Z,0.65
2022-09-04T11:00:21.996Z,0.85
2022-09-04T11:03:27.960Z,0.50
2022-09-04T11:06:15.733Z,1.08
2022-09-04T11:09:13.981Z,1.00
2022-09-04T11:11:46.752Z,0.65
2022-09-04T11:14:25.508Z,0.80
2022-09-04T11:17:37.734Z,0.98
2022-09-04T11:20:26.099Z,1.02
2022-09-04T11:23:11.348Z,0.95
2022-09-04T11:26:11.209Z,1.00
2022-09-04T11:29:12.811Z,0.93
2022-09-04T11:31:58.451Z,0.80
2022-09-04T11:35:02.453Z,0.90
2022-09-04T11:37:57.770Z,0.57
2022-09-04T11:40:43.484Z,0.63
2022-09-04T11:43:32.199Z,0.55
2022-09-04T11:46:30.262Z,0.93
2022-09-04T11:49:15.668Z,0.88
2022-09-04T11:51:45.327Z,0.70
2022-09-04T11:54:33.538Z,0.80
2022-09-04T11:57:04.815Z,0.80
2022-09-04T12:00:10.980Z,0.95
2022-09-04T12:03:05.571Z,0.80
2022-09-04T12:05:47.163Z,0.90
2022-09-04T12:08:32.679Z,0.95
2022-09-04T12:11:21.134Z,0.65
2022-09-04T12:14:02.054Z,1.33
2022-09-04T12:16:47.633Z,0.60
2022-09-04T12:19:50.427Z,0.77
2022-09-04T12:22:36.337Z,1.00
2022-09-04T12:25:26.169Z,0.93
2022-09-04T12:28:08.877Z,0.77
2022-09-04T12:30:54.408Z,0.75
2022-09-04T12:33:36.515Z,1.10
2022-09-04T12:36:15.468Z,0.70
2022-09-04T12:39:04.108Z,0.90
2022-09-04T12:41:46.852Z,0.80
2022-09-04T12:44:42.298Z,0.80
2022-09-04T12:47:15.609Z,1.00
2022-09-04T12:50:37.662Z,1.00
2022-09-04T12:53:32.163Z,0.90
2022-09-04T12:56:12.610Z,0.82
2022-09-04T12:59:11.485Z,2.38
2022-09-04T13:02:09.831Z,0.80
2022-09-04T13:04:49.541Z,0.80
2022-09-04T13:07:54.534Z,0.73
2022-09-04T13:11:08.896Z,0.70
2022-09-04T13:13:48.059Z,0.73
2022-09-04T13:16:41.227Z,0.75
2022-09-04T13:19:49.578Z,0.90
2022-09-04T13:22:39.591Z,1.08
2022-09-04T13:25:49.637Z,1.20
2022-09-04T13:28:45.369Z,1.40
2022-09-04T13:31:43.435Z,1.10
2022-09-04T13:34:13.515Z,1.00
2022-09-04T13:36:49.728Z,1.20
2022-09-04T13:39:31.810Z,1.30
2022-09-04T13:42:08.870Z,1.15
2022-09-04T13:44:40.944Z,1.10
2022-09-04T13:47:16.438Z,1.23
2022-09-04T13:49:53.415Z,1.23
2022-09-04T13:52:34.629Z,1.25
2022-09-04T13:55:06.066Z,1.08
2022-09-04T13:57:40.191Z,1.05
2022-09-04T14:00:08.134Z,1.13
2022-09-04T14:02:36.796Z,1.40
2022-09-04T14:05:25.710Z,1.33
2022-09-04T14:08:04.213Z,1.27
2022-09-04T14:10:55.846Z,1.90
2022-09-04T14:13:33.165Z,1.80
2022-09-04T14:16:11.645Z,1.70
2022-09-04T14:19:13.450Z,1.50
2022-09-04T14:22:02.519Z,1.70
2022-09-04T14:24:56.448Z,2.15
2022-09-04T14:27:48.387Z,2.63
2022-09-04T14:30:16.940Z,2.67
2022-09-04T14:33:07.256Z,3.08
2022-09-04T14:35:46.723Z,2.30
2022-09-04T14:38:35.250Z,2.40
2022-09-04T14:41:35.853Z,1.90
2022-09-04T14:44:17.418Z,1.83
2022-09-04T14:47:09.802Z,1.90
2022-09-04T14:49:48.261Z,2.00
2022-09-04T14:52:28.143Z,1.90
2022-09-04T14:54:58.167Z,1.85
2022-09-04T14:57:43.092Z,1.88
2022-09-04T15:00:17.417Z,1.50
2022-09-04T15:03:13.337Z,1.67
2022-09-04T15:05:56.711Z,1.60
2022-09-04T15:08:39.876Z,1.60
2022-09-04T15:11:13.260Z,2.47
2022-09-04T15:13:53.319Z,1.92
2022-09-04T15:16:23.392Z,2.17
2022-09-04T15:19:29.017Z,2.72
2022-09-04T15:22:18.883Z,2.95
2022-09-04T15:25:09.007Z,2.90
2022-09-04T15:27:46.115Z,3.40
2022-09-04T15:30:33.611Z,3.42
2022-09-04T15:33:08.233Z,3.45
2022-09-04T15:35:36.010Z,3.70
2022-09-04T15:38:21.160Z,4.15
2022-09-04T15:41:16.780Z,4.20
2022-09-04T15:43:51.546Z,4.35
2022-09-04T15:46:33.181Z,4.00
2022-09-04T15:49:41.968Z,4.30
2022-09-04T15:52:12.691Z,4.55
2022-09-04T15:54:42.230Z,4.25
2022-09-04T15:57:20.120Z,4.18
2022-09-04T15:59:59.077Z,4.22
2022-09-04T16:03:17.446Z,4.72
2022-09-04T16:05:52.509Z,4.63
2022-09-04T16:08:26.165Z,4.18
2022-09-04T16:11:20.982Z,4.20
2022-09-04T16:13:50.611Z,4.30
2022-09-04T16:16:25.876Z,4.28
2022-09-04T16:18:52.714Z,4.00
2022-09-04T16:21:40.694Z,4.10
2022-09-04T16:24:30.725Z,4.40
2022-09-04T16:26:58.852Z,4.32
2022-09-04T16:29:36.369Z,4.10
2022-09-04T16:32:09.851Z,4.22
2022-09-04T16:34:45.277Z,4.32
2022-09-04T16:37:19.329Z,4.28
2022-09-04T16:39:59.251Z,4.50
2022-09-04T16:42:45.780Z,5.05
2022-09-04T16:45:30.511Z,5.68
2022-09-04T16:48:15.791Z,5.60
2022-09-04T16:51:40.343Z,6.10
2022-09-04T16:54:17.262Z,7.07
2022-09-04T16:56:53.402Z,4.80
2022-09-04T17:00:22.462Z,5.18
2022-09-04T17:02:52.076Z,6.03
2022-09-04T17:05:28.794Z,5.40
2022-09-04T17:08:07.630Z,5.72
2022-09-04T17:10:59.566Z,5.25
2022-09-04T17:14:08.550Z,4.65
2022-09-04T17:17:31.408Z,5.25
2022-09-04T17:20:23.089Z,6.53
2022-09-04T17:28:59.415Z,5.82
2022-09-04T17:29:10.111Z,4.82
2022-09-04T17:29:58.527Z,4.63
2022-09-04T17:36:41.748Z,4.97
2022-09-04T17:40:39.844Z,4.55
2022-09-04T17:40:48.837Z,4.50
2022-09-04T17:42:08.344Z,4.10
2022-09-04T17:45:06.190Z,4.43
2022-09-04T17:47:41.589Z,4.43
2022-09-04T17:50:14.000Z,4.72
2022-09-04T17:53:01.618Z,4.82
2022-09-04T17:55:38.727Z,4.90
2022-09-04T17:58:21.990Z,4.05
2022-09-04T18:04:22.248Z,5.00
2022-09-04T18:07:50.990Z,5.88
2022-09-04T18:10:12.016Z,5.50
2022-09-04T18:13:36.453Z,6.07
2022-09-04T18:16:18.282Z,6.15
2022-09-04T18:18:54.685Z,6.15
2022-09-04T18:21:37.230Z,6.30
2022-09-04T18:24:19.309Z,5.57
2022-09-04T18:27:02.556Z,4.85
2022-09-04T18:36:15.587Z,6.07
2022-09-04T18:37:22.650Z,5.22
2022-09-04T18:37:25.323Z,5.95
2022-09-04T18:39:11.585Z,4.45
2022-09-04T18:47:17.407Z,4.53
2022-09-04T18:50:22.333Z,4.80
2022-09-04T18:50:33.994Z,4.57
2022-09-04T18:51:20.148Z,4.82
2022-09-04T18:54:10.015Z,4.65
2022-09-04T18:56:45.325Z,5.57
2022-09-04T18:59:24.813Z,4.82
2022-09-04T19:02:11.702Z,4.50
2022-09-04T19:05:00.499Z,4.47
2022-09-04T19:07:35.262Z,5.80
2022-09-04T19:10:17.258Z,6.68
2022-09-04T19:12:56.047Z,7.95
2022-09-04T19:15:55.915Z,7.22
2022-09-04T19:18:43.624Z,8.75
2022-09-04T19:21:14.810Z,8.70
2022-09-04T19:23:41.921Z,9.07
2022-09-04T19:26:38.481Z,8.95
2022-09-04T19:29:11.166Z,7.82
2022-09-04T19:31:44.416Z,4.78
2022-09-04T19:34:28.416Z,4.22
2022-09-04T19:37:50.224Z,4.13
2022-09-04T19:46:05.271Z,4.90
2022-09-04T19:46:07.278Z,4.15
2022-09-04T19:46:28.250Z,4.53
2022-09-04T19:50:54.040Z,4.72
2022-09-04T19:53:30.049Z,4.57
2022-09-04T19:55:24.594Z,4.90
2022-09-04T19:58:11.943Z,4.82
2022-09-04T20:00:54.873Z,5.47
2022-09-04T20:03:43.249Z,5.32
2022-09-04T20:06:32.653Z,4.93
2022-09-04T20:09:02.186Z,4.88
2022-09-04T20:11:40.932Z,5.10
2022-09-04T20:14:19.691Z,5.13
2022-09-04T20:17:01.021Z,5.30
2022-09-04T20:19:51.525Z,5.10
2022-09-04T20:22:37.356Z,4.97
2022-09-04T20:25:04.088Z,4.60
2022-09-04T20:27:36.521Z,5.40
2022-09-04T20:30:12.742Z,4.60
2022-09-04T20:32:53.938Z,5.35
2022-09-04T20:35:44.987Z,5.20
2022-09-04T20:38:33.120Z,5.30
2022-09-04T20:41:20.333Z,5.78
2022-09-04T20:44:03.474Z,5.05
2022-09-04T20:52:43.030Z,5.07
2022-09-04T20:52:58.245Z,6.50
2022-09-04T20:53:05.902Z,6.32
2022-09-04T20:55:46.275Z,6.32
2022-09-04T21:03:11.525Z,8.50
2022-09-04T21:03:20.865Z,8.30
2022-09-04T21:04:42.610Z,9.02
2022-09-04T21:07:37.958Z,9.80
2022-09-04T21:10:24.002Z,8.45
2022-09-04T21:13:14.025Z,8.82
2022-09-04T21:15:47.142Z,9.65
2022-09-04T21:18:22.599Z,10.25
2022-09-04T21:20:59.794Z,9.30
2022-09-04T21:24:03.244Z,11.23
2022-09-04T21:26:36.840Z,9.00
2022-09-04T21:32:21.097Z,9.50
2022-09-04T21:35:13.396Z,9.48
2022-09-04T21:38:08.940Z,10.27
2022-09-04T21:40:52.779Z,9.25
2022-09-04T21:43:47.190Z,8.52
2022-09-04T21:46:58.074Z,10.15
2022-09-04T21:50:15.498Z,8.35
2022-09-04T21:53:01.054Z,8.60
2022-09-04T21:59:15.410Z,7.95
2022-09-04T22:02:35.357Z,7.25
2022-09-04T22:02:36.515Z,7.32
2022-09-04T22:04:58.265Z,7.30
2022-09-04T22:10:49.472Z,6.78
2022-09-04T22:13:37.628Z,5.60
2022-09-04T22:14:15.649Z,6.43
2022-09-04T22:17:06.762Z,6.45
2022-09-04T22:19:55.045Z,6.13
2022-09-04T22:22:49.708Z,5.80
2022-09-04T22:25:45.066Z,6.78
2022-09-04T22:28:42.967Z,7.50
2022-09-04T22:31:29.192Z,7.00
2022-09-04T22:34:40.952Z,6.03
2022-09-04T22:37:35.702Z,5.78
2022-09-04T22:40:26.002Z,4.75
2022-09-04T22:43:15.872Z,5.60
2022-09-04T22:46:17.946Z,6.28
2022-09-04T22:49:12.125Z,8.55
2022-09-04T22:52:17.448Z,9.05
2022-09-04T22:55:36.147Z,7.65
2022-09-04T22:58:21.925Z,8.38
2022-09-04T23:01:25.171Z,8.18
2022-09-04T23:04:10.880Z,8.77
2022-09-04T23:12:42.773Z,9.40
2022-09-04T23:13:43.965Z,8.13
2022-09-04T23:13:57.503Z,9.57
2022-09-04T23:15:36.327Z,8.20
2022-09-04T23:23:00.047Z,8.52
2022-09-04T23:26:38.495Z,10.07
2022-09-04T23:26:44.301Z,9.90
2022-09-04T23:28:21.438Z,9.65
2022-09-04T23:31:11.248Z,9.07
2022-09-04T23:34:36.777Z,9.32
2022-09-04T23:37:24.507Z,8.52
2022-09-04T23:40:25.687Z,8.80
2022-09-04T23:43:21.318Z,8.10
2022-09-04T23:46:23.641Z,6.97
2022-09-04T23:49:28.370Z,8.00
2022-09-04T23:51:55.151Z,7.20
2022-09-04T23:54:30.914Z,6.90
2022-09-04T23:57:16.882Z,6.93
